createdAt,value
2023-04-19T00:01:11.404Z,72.68
2023-04-19T00:03:38.453Z,72.75
2023-04-19T00:06:08.362Z,72.94
2023-04-19T00:08:34.997Z,73.13
2023-04-19T00:11:01.700Z,73.31
2023-04-19T00:13:28.667Z,73.19
2023-04-19T00:15:58.551Z,72.96
2023-04-19T00:18:25.329Z,73.41
2023-04-19T00:20:52.217Z,73.45
2023-04-19T00:23:18.946Z,73.30
2023-04-19T00:25:52.069Z,72.99
2023-04-19T00:28:21.023Z,72.80
2023-04-19T00:30:50.106Z,72.91
2023-04-19T00:33:16.730Z,73.09
2023-04-19T00:35:43.495Z,73.59
2023-04-19T00:38:12.902Z,73.25
2023-04-19T00:40:39.719Z,73.37
2023-04-19T00:43:06.619Z,73.37
2023-04-19T00:45:37.062Z,73.56
2023-04-19T00:48:06.801Z,73.29
2023-04-19T00:50:33.720Z,73.44
2023-04-19T00:53:02.911Z,73.54
2023-04-19T00:55:29.829Z,73.49
2023-04-19T00:57:57.471Z,73.51
2023-04-19T01:00:24.156Z,73.35
2023-04-19T01:02:53.761Z,73.44
2023-04-19T01:05:20.715Z,73.84
2023-04-19T01:07:49.709Z,73.46
2023-04-19T01:10:16.764Z,73.86
2023-04-19T01:12:43.408Z,73.79
2023-04-19T01:15:10.865Z,73.83
2023-04-19T01:17:39.950Z,73.87
2023-04-19T01:20:08.286Z,74.11
2023-04-19T01:22:37.812Z,73.78
2023-04-19T01:25:05.336Z,73.90
2023-04-19T01:27:32.054Z,73.94
2023-04-19T01:29:59.035Z,74.17
2023-04-19T01:32:28.443Z,74.03
2023-04-19T01:34:55.267Z,73.97
2023-04-19T01:37:24.385Z,74.48
2023-04-19T01:39:51.168Z,74.19
2023-04-19T01:42:17.955Z,74.56
2023-04-19T01:44:47.017Z,74.85
2023-04-19T01:47:13.857Z,74.75
2023-04-19T01:49:40.941Z,74.99
2023-04-19T01:52:10.255Z,75.16
2023-04-19T01:54:37.030Z,74.98
2023-04-19T01:57:06.078Z,75.23
2023-04-19T01:59:32.871Z,74.89
2023-04-19T02:01:59.886Z,75.13
2023-04-19T02:04:26.763Z,75.44
2023-04-19T02:06:53.441Z,75.39
2023-04-19T02:09:20.186Z,75.36
2023-04-19T02:11:46.853Z,75.61
2023-04-19T02:14:13.834Z,75.74
2023-04-19T02:16:40.873Z,75.39
2023-04-19T02:19:07.684Z,75.70
2023-04-19T02:21:34.475Z,75.56
2023-04-19T02:24:03.938Z,75.83
2023-04-19T02:26:30.729Z,76.25
2023-04-19T02:28:57.525Z,75.79
2023-04-19T02:31:24.301Z,76.36
2023-04-19T02:33:51.265Z,75.84
2023-04-19T02:36:17.936Z,76.53
2023-04-19T02:38:44.679Z,76.42
2023-04-19T02:41:11.552Z,76.26
2023-04-19T02:43:38.199Z,76.24
2023-04-19T02:46:04.911Z,76.41
2023-04-19T02:48:31.759Z,76.74
2023-04-19T02:50:58.755Z,76.33
2023-04-19T02:53:25.745Z,76.66
2023-04-19T02:55:52.513Z,76.67
2023-04-19T02:58:19.215Z,76.33
2023-04-19T03:00:48.309Z,76.88
2023-04-19T03:03:17.538Z,76.33
2023-04-19T03:05:44.296Z,76.90
2023-04-19T03:08:13.389Z,76.62
2023-04-19T03:10:40.249Z,77.13
2023-04-19T03:13:06.870Z,76.97
2023-04-19T03:15:34.004Z,76.82
2023-04-19T03:18:00.876Z,76.62
2023-04-19T03:20:27.603Z,76.81
2023-04-19T03:22:54.547Z,76.79
2023-04-19T03:25:21.515Z,76.60
2023-04-19T03:27:48.326Z,76.82
2023-04-19T03:30:15.402Z,77.14
2023-04-19T03:32:44.407Z,76.97
2023-04-19T03:35:11.259Z,77.01
2023-04-19T03:37:38.085Z,77.29
2023-04-19T03:40:07.347Z,77.02
2023-04-19T03:42:34.190Z,76.88
2023-04-19T03:45:01.006Z,76.90
2023-04-19T03:47:27.961Z,77.30
2023-04-19T03:49:54.680Z,77.27
2023-04-19T03:52:21.481Z,77.28
2023-04-19T03:54:50.374Z,77.07
2023-04-19T03:57:17.803Z,76.98
2023-04-19T03:59:44.626Z,77.36
2023-04-19T04:02:11.567Z,77.50
2023-04-19T04:04:41.050Z,77.30
2023-04-19T04:07:10.751Z,76.95
2023-04-19T04:09:37.467Z,77.31
2023-04-19T04:12:06.636Z,77.23
2023-04-19T04:14:33.320Z,77.00
2023-04-19T04:17:00.001Z,77.46
2023-04-19T04:19:27.096Z,77.17
2023-04-19T04:21:54.072Z,77.36
2023-04-19T04:24:22.358Z,77.55
2023-04-19T04:26:50.067Z,77.59
2023-04-19T04:29:19.948Z,77.34
2023-04-19T04:31:46.699Z,77.30
2023-04-19T04:34:14.395Z,77.83
2023-04-19T04:36:41.706Z,78.04
2023-04-19T04:39:12.487Z,77.98
2023-04-19T04:41:42.260Z,77.98
2023-04-19T04:44:12.963Z,77.73
2023-04-19T04:46:40.255Z,77.98
2023-04-19T04:49:07.499Z,78.13
2023-04-19T04:51:35.574Z,78.03
2023-04-19T04:54:05.486Z,78.24
2023-04-19T04:56:32.696Z,77.68
2023-04-19T04:58:59.644Z,77.57
2023-04-19T05:01:26.303Z,77.66
2023-04-19T05:03:53.236Z,77.50
2023-04-19T05:06:22.439Z,76.99
2023-04-19T05:08:51.525Z,77.21
2023-04-19T05:11:20.955Z,76.83
2023-04-19T05:13:48.090Z,77.24
2023-04-19T05:16:15.332Z,76.62
2023-04-19T05:18:42.334Z,74.61
2023-04-19T05:21:12.034Z,71.45
2023-04-19T05:23:39.131Z,69.32
2023-04-19T05:26:06.407Z,67.81
2023-04-19T05:28:35.651Z,65.83
2023-04-19T05:31:02.429Z,65.19
2023-04-19T05:33:29.269Z,66.60
2023-04-19T05:35:56.301Z,69.83
2023-04-19T05:38:23.292Z,69.38
2023-04-19T05:40:52.853Z,67.22
2023-04-19T05:43:19.767Z,66.73
2023-04-19T05:45:46.721Z,68.09
2023-04-19T05:48:16.091Z,69.66
2023-04-19T05:50:45.116Z,67.44
2023-04-19T05:53:13.313Z,62.61
2023-04-19T05:55:40.360Z,63.25
2023-04-19T05:58:07.671Z,62.20
2023-04-19T06:00:38.225Z,61.25
2023-04-19T06:03:08.056Z,57.83
2023-04-19T06:05:35.207Z,56.05
2023-04-19T06:08:05.187Z,54.38
2023-04-19T06:10:47.914Z,53.73
2023-04-19T06:13:21.072Z,52.80
2023-04-19T06:15:48.112Z,51.81
2023-04-19T06:18:19.223Z,51.67
2023-04-19T06:20:46.830Z,50.91
2023-04-19T06:23:18.733Z,50.54
2023-04-19T06:25:49.104Z,49.22
2023-04-19T06:28:16.285Z,48.39
2023-04-19T06:30:43.349Z,48.01
2023-04-19T06:33:10.102Z,47.80
2023-04-19T06:35:36.925Z,47.99
2023-04-19T06:38:06.536Z,46.54
2023-04-19T06:40:38.998Z,45.97
2023-04-19T06:43:06.078Z,44.78
2023-04-19T06:45:33.526Z,44.77
2023-04-19T06:48:02.623Z,43.63
2023-04-19T06:50:32.535Z,44.08
2023-04-19T06:53:04.084Z,43.19
2023-04-19T06:55:31.874Z,42.66
2023-04-19T06:57:59.019Z,41.77
2023-04-19T07:00:26.624Z,41.08
2023-04-19T07:02:53.671Z,41.17
2023-04-19T07:05:20.677Z,41.71
2023-04-19T07:07:50.106Z,40.90
2023-04-19T07:10:17.688Z,40.18
2023-04-19T07:12:45.828Z,40.60
2023-04-19T07:15:15.287Z,39.23
2023-04-19T07:17:47.595Z,38.38
2023-04-19T07:20:14.464Z,38.41
2023-04-19T07:22:41.863Z,37.83
2023-04-19T07:25:09.358Z,37.34
2023-04-19T07:27:36.239Z,36.72
2023-04-19T07:30:03.106Z,36.71
2023-04-19T07:32:31.875Z,36.34
2023-04-19T07:34:58.930Z,36.65
2023-04-19T07:37:25.873Z,36.67
2023-04-19T07:39:52.709Z,35.78
2023-04-19T07:42:19.761Z,35.06
2023-04-19T07:44:46.480Z,35.71
2023-04-19T07:47:13.388Z,35.87
2023-04-19T07:49:44.502Z,35.65
2023-04-19T07:52:12.227Z,36.07
2023-04-19T07:54:44.404Z,36.26
2023-04-19T07:57:11.080Z,35.39
2023-04-19T07:59:37.822Z,35.69
2023-04-19T08:02:04.650Z,34.89
2023-04-19T08:04:31.794Z,35.42
2023-04-19T08:06:59.487Z,35.85
2023-04-19T08:09:26.346Z,35.12
2023-04-19T08:11:57.830Z,35.08
2023-04-19T08:14:37.629Z,34.62
2023-04-19T08:17:24.614Z,33.62
2023-04-19T08:19:53.214Z,33.75
2023-04-19T08:22:21.783Z,33.43
2023-04-19T08:24:52.466Z,32.39
2023-04-19T08:27:19.682Z,32.15
2023-04-19T08:29:46.991Z,32.71
2023-04-19T08:32:13.941Z,32.87
2023-04-19T08:34:40.928Z,32.80
2023-04-19T08:37:10.051Z,32.72
2023-04-19T08:39:36.939Z,33.18
2023-04-19T08:42:10.928Z,32.24
2023-04-19T08:44:49.221Z,32.00
2023-04-19T08:47:31.167Z,31.53
2023-04-19T08:50:24.063Z,31.95
2023-04-19T08:53:00.663Z,32.52
2023-04-19T08:55:35.795Z,33.04
2023-04-19T08:58:12.336Z,33.74
2023-04-19T09:00:45.820Z,33.69
2023-04-19T09:03:12.663Z,33.44
2023-04-19T09:05:39.865Z,33.07
2023-04-19T09:08:28.948Z,33.80
2023-04-19T09:10:58.178Z,33.64
2023-04-19T09:13:27.997Z,34.25
2023-04-19T09:15:58.053Z,34.53
2023-04-19T09:18:30.564Z,35.10
2023-04-19T09:20:58.324Z,35.46
2023-04-19T09:23:28.577Z,35.82
2023-04-19T09:28:34.187Z,36.88
2023-04-19T09:31:33.361Z,36.92
2023-04-19T09:34:14.656Z,36.80
2023-04-19T09:36:41.626Z,37.21
2023-04-19T09:39:08.543Z,37.52
2023-04-19T09:41:38.995Z,37.15
2023-04-19T09:46:46.500Z,36.41
2023-04-19T09:49:33.634Z,36.85
2023-04-19T09:52:10.263Z,36.25
2023-04-19T09:54:37.906Z,36.97
2023-04-19T09:57:07.438Z,37.48
2023-04-19T09:59:36.388Z,37.56
2023-04-19T10:02:05.157Z,37.53
2023-04-19T10:04:57.124Z,37.67
2023-04-19T10:07:30.099Z,37.92
2023-04-19T10:10:11.908Z,37.84
2023-04-19T10:13:15.444Z,37.92
2023-04-19T10:15:50.122Z,37.56
2023-04-19T10:18:18.332Z,37.24
2023-04-19T10:20:54.509Z,36.22
2023-04-19T10:23:23.790Z,35.96
2023-04-19T10:25:56.802Z,35.54
2023-04-19T10:28:23.682Z,34.60
2023-04-19T10:31:02.657Z,34.40
2023-04-19T10:33:32.326Z,35.07
2023-04-19T10:35:59.816Z,34.84
2023-04-19T10:38:40.235Z,35.38
2023-04-19T10:41:13.656Z,34.66
2023-04-19T10:44:11.767Z,35.00
2023-04-19T10:46:41.616Z,34.42
2023-04-19T10:49:13.706Z,34.27
2023-04-19T10:51:44.454Z,35.53
2023-04-19T10:54:31.606Z,35.81
2023-04-19T10:57:02.749Z,35.29
2023-04-19T10:59:32.777Z,36.07
2023-04-19T11:02:02.141Z,36.44
2023-04-19T11:04:32.283Z,36.13
2023-04-19T11:07:05.031Z,35.74
2023-04-19T11:09:36.025Z,35.26
2023-04-19T11:12:08.221Z,35.47
2023-04-19T11:14:36.988Z,35.25
2023-04-19T11:17:16.605Z,35.42
2023-04-19T11:19:45.219Z,35.78
2023-04-19T11:22:11.925Z,35.25
2023-04-19T11:24:38.532Z,35.23
2023-04-19T11:27:09.524Z,35.69
2023-04-19T11:29:36.175Z,35.40
2023-04-19T11:32:05.075Z,35.06
2023-04-19T11:34:37.183Z,35.72
2023-04-19T11:37:03.876Z,35.96
2023-04-19T11:39:32.965Z,35.77
2023-04-19T11:41:59.627Z,36.17
2023-04-19T11:44:26.337Z,36.16
2023-04-19T11:47:00.352Z,35.37
2023-04-19T11:49:31.225Z,35.09
2023-04-19T11:52:04.645Z,34.07
2023-04-19T11:54:32.070Z,34.25
2023-04-19T11:57:03.436Z,34.61
2023-04-19T11:59:32.458Z,34.64
2023-04-19T12:02:12.799Z,34.64
2023-04-19T12:04:42.252Z,33.55
2023-04-19T12:07:10.563Z,33.36
2023-04-19T12:09:38.665Z,33.12
2023-04-19T12:12:05.394Z,32.78
2023-04-19T12:14:32.374Z,32.56
2023-04-19T12:17:05.866Z,33.05
2023-04-19T12:19:37.445Z,32.72
2023-04-19T12:22:17.489Z,33.07
2023-04-19T12:24:44.126Z,32.86
2023-04-19T12:27:11.502Z,32.29
2023-04-19T12:29:39.227Z,32.53
2023-04-19T12:32:10.884Z,31.52
2023-04-19T12:34:37.557Z,31.67
2023-04-19T12:37:06.933Z,31.91
2023-04-19T12:39:33.709Z,31.87
2023-04-19T12:42:01.409Z,29.61
2023-04-19T12:44:30.650Z,30.25
2023-04-19T12:46:57.811Z,29.44
2023-04-19T12:49:24.707Z,30.19
2023-04-19T12:51:51.409Z,28.89
2023-04-19T12:54:18.078Z,30.29
2023-04-19T12:56:44.631Z,29.32
2023-04-19T12:59:13.633Z,30.11
2023-04-19T13:01:40.778Z,29.38
2023-04-19T13:04:11.630Z,29.86
2023-04-19T13:06:41.082Z,29.45
2023-04-19T13:09:14.159Z,28.15
2023-04-19T13:11:41.850Z,27.62
2023-04-19T13:14:11.432Z,26.75
2023-04-19T13:16:40.322Z,28.24
2023-04-19T13:19:11.726Z,28.18
2023-04-19T13:21:41.559Z,28.35
2023-04-19T13:24:08.430Z,28.16
2023-04-19T13:26:35.034Z,27.46
2023-04-19T13:29:01.708Z,28.53
2023-04-19T13:31:31.151Z,27.09
2023-04-19T13:34:00.744Z,27.25
2023-04-19T13:36:28.214Z,28.80
2023-04-19T13:38:57.390Z,27.89
2023-04-19T13:41:24.039Z,27.94
2023-04-19T13:43:50.573Z,28.73
2023-04-19T13:46:19.480Z,28.38
2023-04-19T13:48:49.541Z,29.19
2023-04-19T13:51:16.159Z,28.70
2023-04-19T13:53:42.736Z,29.03
2023-04-19T13:56:09.682Z,29.08
2023-04-19T13:58:37.440Z,28.54
2023-04-19T14:01:04.147Z,29.22
2023-04-19T14:03:31.714Z,29.31
2023-04-19T14:06:03.258Z,28.77
2023-04-19T14:08:29.788Z,29.60
2023-04-19T14:10:58.653Z,30.14
2023-04-19T14:13:25.246Z,29.77
2023-04-19T14:15:51.877Z,29.54
2023-04-19T14:18:18.437Z,29.64
2023-04-19T14:20:45.681Z,28.37
2023-04-19T14:23:14.654Z,29.19
2023-04-19T14:25:41.265Z,29.26
2023-04-19T14:28:07.893Z,29.46
2023-04-19T14:30:34.700Z,29.34
2023-04-19T14:33:03.966Z,29.37
2023-04-19T14:35:31.127Z,28.60
2023-04-19T14:37:57.758Z,29.26
2023-04-19T14:40:24.567Z,29.60
2023-04-19T14:42:53.624Z,29.26
2023-04-19T14:45:26.028Z,29.00
2023-04-19T14:47:52.712Z,29.26
2023-04-19T14:50:20.022Z,29.22
2023-04-19T14:52:48.816Z,29.29
2023-04-19T14:55:15.422Z,28.89
2023-04-19T14:57:42.033Z,29.00
2023-04-19T15:00:09.603Z,29.57
2023-04-19T15:02:37.474Z,29.56
2023-04-19T15:05:04.670Z,29.47
2023-04-19T15:07:31.555Z,29.08
2023-04-19T15:09:58.531Z,28.74
2023-04-19T15:12:27.530Z,29.64
2023-04-19T15:14:56.408Z,29.41
2023-04-19T15:17:23.083Z,29.93
2023-04-19T15:19:52.014Z,29.39
2023-04-19T15:22:18.822Z,29.47
2023-04-19T15:24:47.797Z,29.08
2023-04-19T15:27:16.861Z,29.56
2023-04-19T15:29:43.488Z,29.45
2023-04-19T15:32:12.204Z,29.22
2023-04-19T15:34:38.817Z,29.45
2023-04-19T15:37:08.786Z,29.94
2023-04-19T15:39:35.505Z,30.17
2023-04-19T15:42:03.169Z,29.85
2023-04-19T15:44:32.299Z,30.26
2023-04-19T15:46:58.995Z,30.21
2023-04-19T15:49:27.935Z,30.24
2023-04-19T15:51:57.163Z,30.00
2023-04-19T15:54:23.841Z,30.15
2023-04-19T15:56:52.698Z,30.22
2023-04-19T15:59:19.239Z,30.70
2023-04-19T16:01:46.893Z,30.67
2023-04-19T16:04:13.810Z,31.04
2023-04-19T16:06:40.828Z,31.13
2023-04-19T16:09:09.962Z,31.24
2023-04-19T16:11:36.647Z,31.35
2023-04-19T16:14:03.244Z,31.84
2023-04-19T16:16:34.374Z,31.81
2023-04-19T16:19:03.689Z,32.25
2023-04-19T16:21:32.642Z,32.25
2023-04-19T16:24:01.486Z,31.97
2023-04-19T16:26:28.150Z,32.14
2023-04-19T16:28:57.129Z,31.88
2023-04-19T16:31:28.552Z,31.46
2023-04-19T16:33:55.347Z,31.90
2023-04-19T16:36:22.161Z,32.31
2023-04-19T16:38:51.358Z,32.31
2023-04-19T16:41:18.030Z,32.24
2023-04-19T16:43:44.841Z,32.31
2023-04-19T16:46:11.454Z,32.37
2023-04-19T16:48:40.724Z,31.71
2023-04-19T16:51:07.310Z,31.75
2023-04-19T16:53:36.136Z,31.99
2023-04-19T16:56:03.693Z,32.03
2023-04-19T16:58:32.421Z,32.14
2023-04-19T17:01:02.683Z,32.04
2023-04-19T17:03:32.332Z,32.11
2023-04-19T17:05:59.146Z,32.53
2023-04-19T17:08:26.626Z,32.55
2023-04-19T17:10:53.246Z,32.98
2023-04-19T17:13:22.906Z,33.13
2023-04-19T17:15:51.843Z,33.20
2023-04-19T17:18:18.635Z,33.16
2023-04-19T17:20:45.753Z,33.54
2023-04-19T17:23:12.426Z,33.69
2023-04-19T17:25:41.556Z,33.64
2023-04-19T17:28:10.429Z,33.68
2023-04-19T17:30:37.103Z,34.05
2023-04-19T17:33:06.349Z,33.74
2023-04-19T17:35:33.045Z,33.83
2023-04-19T17:38:01.833Z,33.83
2023-04-19T17:40:29.551Z,33.53
2023-04-19T17:42:56.513Z,33.88
2023-04-19T17:45:25.007Z,34.30
2023-04-19T17:47:55.747Z,34.54
2023-04-19T17:50:22.819Z,34.21
2023-04-19T17:52:49.471Z,34.44
2023-04-19T17:55:16.194Z,34.49
2023-04-19T17:57:46.079Z,34.65
2023-04-19T18:00:13.596Z,34.60
2023-04-19T18:02:40.854Z,34.60
2023-04-19T18:05:08.012Z,34.60
2023-04-19T18:07:37.485Z,34.51
2023-04-19T18:10:04.445Z,34.96
2023-04-19T18:12:31.102Z,35.13
2023-04-19T18:14:59.901Z,35.16
2023-04-19T18:17:26.637Z,34.92
2023-04-19T18:19:53.476Z,35.37
2023-04-19T18:22:20.030Z,35.10
2023-04-19T18:24:47.390Z,35.14
2023-04-19T18:27:17.354Z,35.56
2023-04-19T18:29:44.061Z,35.77
2023-04-19T18:32:10.831Z,36.25
2023-04-19T18:34:42.562Z,36.04
2023-04-19T18:37:15.404Z,36.09
2023-04-19T18:39:42.572Z,35.94
2023-04-19T18:42:11.676Z,35.96
2023-04-19T18:44:53.566Z,36.15
2023-04-19T18:47:21.315Z,36.10
2023-04-19T18:50:03.735Z,36.06
2023-04-19T18:52:31.717Z,36.27
2023-04-19T18:54:58.494Z,36.12
2023-04-19T18:57:27.621Z,36.14
2023-04-19T18:59:56.898Z,36.12
2023-04-19T19:02:23.663Z,36.25
2023-04-19T19:04:58.510Z,36.05
2023-04-19T19:07:36.161Z,36.06
2023-04-19T19:10:16.910Z,36.23
2023-04-19T19:12:47.521Z,35.80
2023-04-19T19:15:14.726Z,35.80
2023-04-19T19:17:41.441Z,35.77
2023-04-19T19:20:13.392Z,35.51
2023-04-19T19:22:40.362Z,35.48
2023-04-19T19:25:07.342Z,35.58
2023-04-19T19:27:35.324Z,35.93
2023-04-19T19:30:03.530Z,35.85
2023-04-19T19:32:32.485Z,35.51
2023-04-19T19:35:02.401Z,35.66
2023-04-19T19:37:30.528Z,35.18
2023-04-19T19:39:57.103Z,34.41
2023-04-19T19:42:26.594Z,35.31
2023-04-19T19:44:55.110Z,35.34
2023-04-19T19:47:24.040Z,35.28
2023-04-19T19:50:33.581Z,35.31
2023-04-19T19:52:37.575Z,35.69
2023-04-19T19:55:04.514Z,35.62
2023-04-19T20:00:17.936Z,35.41
2023-04-19T20:05:21.781Z,35.62
2023-04-19T20:10:19.778Z,35.61
2023-04-19T20:12:47.325Z,35.56
2023-04-19T20:15:14.106Z,36.00
2023-04-19T20:17:41.490Z,36.15
2023-04-19T20:20:09.110Z,36.03
2023-04-19T20:22:35.847Z,36.34
2023-04-19T20:25:03.735Z,36.43
2023-04-19T20:27:30.840Z,36.05
2023-04-19T20:29:57.552Z,36.44
2023-04-19T20:32:24.850Z,36.25
2023-04-19T20:34:52.169Z,36.26
2023-04-19T20:37:19.179Z,36.26
2023-04-19T20:39:47.959Z,36.75
2023-04-19T20:42:14.863Z,36.68
2023-04-19T20:44:44.574Z,37.13
2023-04-19T20:47:13.396Z,37.09
2023-04-19T20:49:40.310Z,36.81
2023-04-19T20:52:07.511Z,36.77
2023-04-19T20:54:36.647Z,37.09
2023-04-19T20:57:04.824Z,37.28
2023-04-19T20:59:31.659Z,37.34
2023-04-19T21:01:59.737Z,37.40
2023-04-19T21:04:31.726Z,37.58
2023-04-19T21:07:00.425Z,37.24
2023-04-19T21:09:30.359Z,36.83
2023-04-19T21:11:58.573Z,37.13
2023-04-19T21:14:25.393Z,37.03
2023-04-19T21:16:52.102Z,37.13
2023-04-19T21:19:19.039Z,37.33
2023-04-19T21:21:46.368Z,37.56
2023-04-19T21:24:13.452Z,38.11
2023-04-19T21:26:40.357Z,37.83
2023-04-19T21:29:07.255Z,37.58
2023-04-19T21:31:36.393Z,38.07
2023-04-19T21:34:06.241Z,37.77
2023-04-19T21:36:35.631Z,37.80
2023-04-19T21:39:02.723Z,37.85
2023-04-19T21:41:32.728Z,37.71
2023-04-19T21:43:59.903Z,37.86
2023-04-19T21:46:27.066Z,37.67
2023-04-19T21:48:56.302Z,37.85
2023-04-19T21:51:23.239Z,38.13
2023-04-19T21:53:50.977Z,38.56
2023-04-19T21:56:18.756Z,37.58
2023-04-19T21:58:45.627Z,38.01
2023-04-19T22:01:12.704Z,37.90
2023-04-19T22:03:39.883Z,38.04
2023-04-19T22:06:14.069Z,38.14
2023-04-19T22:08:41.907Z,38.03
2023-04-19T22:11:12.090Z,37.93
2023-04-19T22:13:38.983Z,37.72
2023-04-19T22:16:08.690Z,37.52
2023-04-19T22:18:41.484Z,37.51
2023-04-19T22:21:11.179Z,37.73
2023-04-19T22:23:38.248Z,37.56
2023-04-19T22:26:07.385Z,37.55
2023-04-19T22:28:36.055Z,37.78
2023-04-19T22:31:07.672Z,37.50
2023-04-19T22:33:40.295Z,37.27
2023-04-19T22:36:10.260Z,37.64
2023-04-19T22:38:41.999Z,37.43
2023-04-19T22:41:09.160Z,37.39
2023-04-19T22:43:36.044Z,37.93
2023-04-19T22:46:02.788Z,37.43
2023-04-19T22:48:30.265Z,37.47
2023-04-19T22:50:57.033Z,37.49
2023-04-19T22:53:24.034Z,37.85
2023-04-19T22:55:53.349Z,37.45
2023-04-19T22:58:20.191Z,37.90
2023-04-19T23:00:47.380Z,38.01
2023-04-19T23:03:16.813Z,37.71
2023-04-19T23:05:44.481Z,38.04
2023-04-19T23:08:12.958Z,37.99
2023-04-19T23:10:42.412Z,38.09
2023-04-19T23:13:10.618Z,38.48
2023-04-19T23:15:39.394Z,38.33
2023-04-19T23:18:08.539Z,38.13
2023-04-19T23:20:35.907Z,38.12
2023-04-19T23:23:05.389Z,38.56
2023-04-19T23:25:32.253Z,38.51
2023-04-19T23:27:58.927Z,38.46
2023-04-19T23:30:29.599Z,38.54
2023-04-19T23:32:56.510Z,38.59
2023-04-19T23:35:23.498Z,38.26
2023-04-19T23:37:50.669Z,38.41
2023-04-19T23:40:20.710Z,38.50
2023-04-19T23:42:47.572Z,38.47
2023-04-19T23:45:14.357Z,38.42
2023-04-19T23:47:41.389Z,38.85
2023-04-19T23:50:11.136Z,38.90
2023-04-19T23:52:40.137Z,38.69
2023-04-19T23:55:07.226Z,38.82
2023-04-19T23:57:35.973Z,39.15
